This is the latest recevied weather packets stored in our database for station/object OE6JUE. If no packets are shown the sender has not sent any weather packets the latest 10 day(s).
| Time | Temp. | Humidity | Pressure | Rain* | Wind** | Luminosity | Snow |
|---|---|---|---|---|---|---|---|
| 1788502584 | 25° C | 51% | 1022 hPa | 0 mm | - | - | - |
| 1788502284 | 24.44° C | 57% | 1022.1 hPa | 0 mm | - | - | - |
| 1788501983 | 24.44° C | 57% | 1022.2 hPa | 0 mm | - | - | - |
| 1788501684 | 23.89° C | 57% | 1022.2 hPa | 0 mm | - | - | - |
| 1788501384 | 23.33° C | 61% | 1022.2 hPa | 0 mm | - | - | - |
| 1788501083 | 22.78° C | 63% | 1022.3 hPa | 0 mm | - | - | - |
| 1788500784 | 22.78° C | 63% | 1022.3 hPa | 0 mm | - | - | - |
| 1788500483 | 20.56° C | 70% | 1022.3 hPa | 0 mm | - | - | - |
| 1788500183 | 20° C | 70% | 1022.3 hPa | 0 mm | - | - | - |
| 1788499883 | 19.44° C | 72% | 1022.3 hPa | 0 mm | - | - | - |
| 1788499584 | 18.33° C | 75% | 1022.1 hPa | 0 mm | - | - | - |
| 1788499284 | 17.22° C | 79% | 1022.2 hPa | 0 mm | - | - | - |
| 1788498983 | 16.67° C | 78% | 1022.2 hPa | 0 mm | - | - | - |
| 1788498684 | 16.67° C | 78% | 1022.2 hPa | 0 mm | - | - | - |
| 1788498383 | 16.67° C | 78% | 1022.2 hPa | 0 mm | - | - | - |
| 1788498083 | 16.67° C | 80% | 1022.3 hPa | 0 mm | - | - | - |
| 1788497784 | 16.67° C | 80% | 1022 hPa | 0 mm | - | - | - |
| 1788497483 | 16.11° C | 80% | 1022.3 hPa | 0 mm | - | - | - |
| 1788497183 | 16.11° C | 80% | 1022.3 hPa | 0 mm | - | - | - |
| 1788496883 | 16.11° C | 80% | 1022.1 hPa | 0 mm | - | - | - |
| 1788496583 | 15.56° C | 80% | 1022.1 hPa | 0 mm | - | - | - |
| 1788496283 | 16.11° C | 79% | 1022.2 hPa | 0 mm | - | - | - |
| 1788495984 | 16.11° C | 80% | 1022.1 hPa | 0 mm | - | - | - |
| 1788495684 | 16.11° C | 80% | 1022 hPa | 0 mm | - | - | - |
| 1788495384 | 16.11° C | 79% | 1022 hPa | 0 mm | - | - | - |
* Rain latest hour (hover to see other rain measurements)
** Current wind speed in m/s (hover to see current wind gust speed)